Muldraugh, Kentucky
Current Conditions -  °F | °C
As of 2:58 PM on Saturday 25 Oct 2014 (Local Time) from KFTK Reporting Station
Few Clouds Few Clouds  
Wind Chill: 74°   Ceiling: Unl
Heat Index: 74°   Visibility: 10mi
Dew Point: 60°   Wind: 8mph
Humidity: 61%   Direction: 240°WSW
Pressure: 29.97"   Gusts: NA
Location:  37.94°N, 85.99°W
Report Text: KFTK 251858Z AUTO 24007KT 220V300 10SM FEW030 23/15 A2997 RMK AO2 SLP149 T02320154
Loading
Personal Weather Stations






























Interactive Weather Map
Tropical Storm Tracking
New forecast layout! Learn more

10-Day Weather Forecast

Advertisements
Track Severe Weather on mobile